createdAt,value
2018-09-02T00:00:50.074Z,990.479
2018-09-02T00:02:50.068Z,990.456
2018-09-02T00:04:50.444Z,990.443
2018-09-02T00:06:50.568Z,990.435
2018-09-02T00:08:49.604Z,990.408
2018-09-02T00:10:49.729Z,990.387
2018-09-02T00:12:49.743Z,990.376
2018-09-02T00:14:49.737Z,990.371
2018-09-02T00:16:50.073Z,990.381
2018-09-02T00:18:50.088Z,990.379
2018-09-02T00:20:50.059Z,990.344
2018-09-02T00:22:50.047Z,990.325
2018-09-02T00:24:50.059Z,990.324
2018-09-02T00:26:50.296Z,990.288
2018-09-02T00:28:50.394Z,990.293
2018-09-02T00:30:50.500Z,990.266
2018-09-02T00:32:50.696Z,990.265
2018-09-02T00:34:50.368Z,990.247
2018-09-02T00:36:50.536Z,990.199
2018-09-02T00:38:49.631Z,990.177
2018-09-02T00:40:50.590Z,990.167
2018-09-02T00:42:49.703Z,990.165
2018-09-02T00:44:49.783Z,990.149
2018-09-02T00:46:49.991Z,990.142
2018-09-02T00:48:50.056Z,990.100
2018-09-02T00:50:50.075Z,990.086
2018-09-02T00:52:50.090Z,990.077
2018-09-02T00:54:50.118Z,990.073
2018-09-02T00:56:50.467Z,990.072
2018-09-02T00:58:50.442Z,990.073
2018-09-02T01:00:50.478Z,990.079
2018-09-02T01:02:50.434Z,990.084
2018-09-02T01:04:49.782Z,990.068
2018-09-02T01:06:49.946Z,990.047
2018-09-02T01:08:49.914Z,990.047
2018-09-02T01:10:49.929Z,990.034
2018-09-02T01:12:49.931Z,990.023
2018-09-02T01:14:49.854Z,990.022
2018-09-02T01:16:50.036Z,990.021
2018-09-02T01:18:50.071Z,990.028
2018-09-02T01:20:50.155Z,990.024
2018-09-02T01:22:50.311Z,990.014
2018-09-02T01:24:50.436Z,990.000
2018-09-02T01:26:49.644Z,989.955
2018-09-02T01:28:49.661Z,989.940
2018-09-02T01:30:49.618Z,989.940
2018-09-02T01:32:49.755Z,989.926
2018-09-02T01:34:50.179Z,989.918
2018-09-02T01:36:50.378Z,989.900
2018-09-02T01:38:50.374Z,989.889
2018-09-02T01:40:50.400Z,989.880
2018-09-02T01:42:50.365Z,989.843
2018-09-02T01:44:50.432Z,989.804
2018-09-02T01:46:49.667Z,989.791
2018-09-02T01:48:49.649Z,989.787
2018-09-02T01:50:49.709Z,989.797
2018-09-02T01:52:49.758Z,989.801
2018-09-02T01:54:50.011Z,989.819
2018-09-02T01:56:50.195Z,989.841
2018-09-02T01:58:50.308Z,989.847
2018-09-02T02:00:50.295Z,989.854
2018-09-02T02:02:50.322Z,989.847
2018-09-02T02:04:49.787Z,989.854
2018-09-02T02:06:50.024Z,989.867
2018-09-02T02:08:50.257Z,989.859
2018-09-02T02:10:50.280Z,989.840
2018-09-02T02:12:50.357Z,989.830
2018-09-02T02:14:50.338Z,989.812
2018-09-02T02:16:50.587Z,989.807
2018-09-02T02:18:49.639Z,989.807
2018-09-02T02:20:49.711Z,989.791
2018-09-02T02:22:49.648Z,989.773
2018-09-02T02:24:49.695Z,989.742
2018-09-02T02:26:49.992Z,989.725
2018-09-02T02:28:49.970Z,989.725
2018-09-02T02:30:50.066Z,989.700
2018-09-02T02:32:50.148Z,989.713
2018-09-02T02:34:50.540Z,989.731
2018-09-02T02:36:49.915Z,989.727
2018-09-02T02:38:49.908Z,989.705
2018-09-02T02:40:49.960Z,989.682
2018-09-02T02:42:50.052Z,989.675
2018-09-02T02:44:50.094Z,989.660
2018-09-02T02:46:50.437Z,989.647
2018-09-02T02:48:50.416Z,989.592
2018-09-02T02:50:50.581Z,989.579
2018-09-02T02:52:49.730Z,989.568
2018-09-02T02:54:50.578Z,989.566
2018-09-02T02:56:49.734Z,989.577
2018-09-02T02:58:49.767Z,989.537
2018-09-02T03:00:49.955Z,989.529
2018-09-02T03:02:49.918Z,989.526
2018-09-02T03:04:50.146Z,989.528
2018-09-02T03:06:50.305Z,989.533
2018-09-02T03:08:50.373Z,989.528
2018-09-02T03:10:50.774Z,989.507
2018-09-02T03:12:50.023Z,989.507
2018-09-02T03:14:50.037Z,989.495
2018-09-02T03:16:50.272Z,989.492
2018-09-02T03:18:50.513Z,989.472
2018-09-02T03:20:50.478Z,989.473
2018-09-02T03:22:50.537Z,989.492
2018-09-02T03:24:49.649Z,989.486
2018-09-02T03:26:49.865Z,989.476
2018-09-02T03:28:49.861Z,989.466
2018-09-02T03:30:49.905Z,989.462
2018-09-02T03:32:49.969Z,989.458
2018-09-02T03:34:50.411Z,989.442
2018-09-02T03:36:49.817Z,989.429
2018-09-02T03:38:49.861Z,989.423
2018-09-02T03:40:49.920Z,989.415
2018-09-02T03:42:49.946Z,989.403
2018-09-02T03:44:50.158Z,989.364
2018-09-02T03:46:50.432Z,989.356
2018-09-02T03:48:50.443Z,989.325
2018-09-02T03:50:49.680Z,989.319
2018-09-02T03:52:49.919Z,989.303
2018-09-02T03:54:49.958Z,989.291
2018-09-02T03:56:50.192Z,989.283
2018-09-02T03:58:50.157Z,989.271
2018-09-02T04:00:50.197Z,989.267
2018-09-02T04:02:50.223Z,989.239
2018-09-02T04:04:49.660Z,989.224
2018-09-02T04:06:49.942Z,989.213
2018-09-02T04:08:50.041Z,989.192
2018-09-02T04:10:50.076Z,989.235
2018-09-02T04:12:50.065Z,989.275
2018-09-02T04:14:50.102Z,989.289
2018-09-02T04:16:50.338Z,989.300
2018-09-02T04:18:50.378Z,989.303
2018-09-02T04:20:50.457Z,989.304
2018-09-02T04:22:50.509Z,989.302
2018-09-02T04:24:50.582Z,989.281
2018-09-02T04:26:49.712Z,989.277
2018-09-02T04:28:49.894Z,989.280
2018-09-02T04:30:49.878Z,989.288
2018-09-02T04:32:49.917Z,989.293
2018-09-02T04:34:50.233Z,989.303
2018-09-02T04:36:50.369Z,989.284
2018-09-02T04:38:50.388Z,989.283
2018-09-02T04:40:50.442Z,989.289
2018-09-02T04:42:50.513Z,989.281
2018-09-02T04:44:49.750Z,989.295
2018-09-02T04:46:50.125Z,989.295
2018-09-02T04:48:50.265Z,989.254
2018-09-02T04:50:50.357Z,989.237
2018-09-02T04:52:50.375Z,989.213
2018-09-02T04:54:49.686Z,989.229
2018-09-02T04:56:49.861Z,989.221
2018-09-02T04:58:49.890Z,989.231
2018-09-02T05:00:49.857Z,989.233
2018-09-02T05:02:49.886Z,989.236
2018-09-02T05:04:50.262Z,989.247
2018-09-02T05:06:50.532Z,989.247
2018-09-02T05:08:49.633Z,989.275
2018-09-02T05:10:49.633Z,989.289
2018-09-02T05:12:49.782Z,989.298
2018-09-02T05:14:49.769Z,989.303
2018-09-02T05:16:49.990Z,989.317
2018-09-02T05:18:49.977Z,989.318
2018-09-02T05:20:50.114Z,989.309
2018-09-02T05:22:50.192Z,989.300
2018-09-02T05:24:50.253Z,989.279
2018-09-02T05:26:49.642Z,989.280
2018-09-02T05:28:49.769Z,989.264
2018-09-02T05:30:49.804Z,989.272
2018-09-02T05:32:49.918Z,989.285
2018-09-02T05:34:50.261Z,989.295
2018-09-02T05:36:50.266Z,989.302
2018-09-02T05:38:50.592Z,989.295
2018-09-02T05:40:49.717Z,989.270
2018-09-02T05:42:49.816Z,989.271
2018-09-02T05:44:49.900Z,989.258
2018-09-02T05:46:50.069Z,989.258
2018-09-02T05:48:50.228Z,989.261
2018-09-02T05:50:50.367Z,989.254
2018-09-02T05:52:50.388Z,989.259
2018-09-02T05:54:50.457Z,989.268
2018-09-02T05:56:49.736Z,989.268
2018-09-02T05:58:49.889Z,989.270
2018-09-02T06:00:49.977Z,989.259
2018-09-02T06:02:50.493Z,989.254
2018-09-02T06:04:50.339Z,989.244
2018-09-02T06:06:50.583Z,989.229
2018-09-02T06:08:49.713Z,989.221
2018-09-02T06:10:49.739Z,989.225
2018-09-02T06:12:49.911Z,989.202
2018-09-02T06:14:49.926Z,989.193
2018-09-02T06:16:50.187Z,989.189
2018-09-02T06:18:50.192Z,989.182
2018-09-02T06:20:50.406Z,989.169
2018-09-02T06:22:50.379Z,989.172
2018-09-02T06:24:50.454Z,989.177
2018-09-02T06:26:49.709Z,989.177
2018-09-02T06:28:49.804Z,989.199
2018-09-02T06:30:49.902Z,989.203
2018-09-02T06:32:50.351Z,989.214
2018-09-02T06:34:49.937Z,989.215
2018-09-02T06:36:50.052Z,989.199
2018-09-02T06:38:50.156Z,989.209
2018-09-02T06:40:50.195Z,989.228
2018-09-02T06:42:50.250Z,989.220
2018-09-02T06:44:50.223Z,989.214
2018-09-02T06:46:50.431Z,989.197
2018-09-02T06:48:50.427Z,989.190
2018-09-02T06:50:50.477Z,989.214
2018-09-02T06:52:50.406Z,989.209
2018-09-02T06:54:50.442Z,989.213
2018-09-02T06:56:49.669Z,989.218
2018-09-02T06:58:49.737Z,989.235
2018-09-02T07:00:49.818Z,989.262
2018-09-02T07:02:49.834Z,989.269
2018-09-02T07:04:50.145Z,989.266
2018-09-02T07:06:50.456Z,989.267
2018-09-02T07:08:49.729Z,989.282
2018-09-02T07:10:49.737Z,989.297
2018-09-02T07:12:49.886Z,989.293
2018-09-02T07:14:49.874Z,989.293
2018-09-02T07:16:50.032Z,989.312
2018-09-02T07:18:50.015Z,989.295
2018-09-02T07:20:50.066Z,989.301
2018-09-02T07:22:50.152Z,989.296
2018-09-02T07:24:50.156Z,989.296
2018-09-02T07:26:50.315Z,989.290
2018-09-02T07:28:50.329Z,989.302
2018-09-02T07:30:50.345Z,989.330
2018-09-02T07:32:50.348Z,989.353
2018-09-02T07:34:49.728Z,989.342
2018-09-02T07:36:50.096Z,989.341
2018-09-02T07:38:50.145Z,989.366
2018-09-02T07:40:50.256Z,989.378
2018-09-02T07:42:50.319Z,989.389
2018-09-02T07:44:50.309Z,989.388
2018-09-02T07:46:50.465Z,989.390
2018-09-02T07:48:50.400Z,989.415
2018-09-02T07:50:50.492Z,989.421
2018-09-02T07:52:50.489Z,989.429
2018-09-02T07:54:50.478Z,989.430
2018-09-02T07:56:49.688Z,989.442
2018-09-02T07:58:49.775Z,989.447
2018-09-02T08:00:49.892Z,989.427
2018-09-02T08:02:50.424Z,989.415
2018-09-02T08:04:50.051Z,989.406
2018-09-02T08:06:50.308Z,989.418
2018-09-02T08:08:50.318Z,989.415
2018-09-02T08:10:50.290Z,989.414
2018-09-02T08:12:51.445Z,989.424
2018-09-02T08:14:50.268Z,989.436
2018-09-02T08:16:50.447Z,989.454
2018-09-02T08:18:50.563Z,989.449
2018-09-02T08:20:50.579Z,989.444
2018-09-02T08:22:49.623Z,989.436
2018-09-02T08:24:49.720Z,989.457
2018-09-02T08:26:49.914Z,989.466
2018-09-02T08:28:49.930Z,989.488
2018-09-02T08:30:49.964Z,989.479
2018-09-02T08:32:50.116Z,989.493
2018-09-02T08:34:49.719Z,989.479
2018-09-02T08:36:49.897Z,989.483
2018-09-02T08:38:50.283Z,989.464
2018-09-02T08:40:49.699Z,989.455
2018-09-02T08:42:49.783Z,989.444
2018-09-02T08:44:49.799Z,989.455
2018-09-02T08:46:50.002Z,989.450
2018-09-02T08:48:50.046Z,989.424
2018-09-02T08:50:50.077Z,989.420
2018-09-02T08:52:50.089Z,989.416
2018-09-02T08:54:50.117Z,989.451
2018-09-02T08:56:50.161Z,989.467
2018-09-02T08:58:50.193Z,989.460
2018-09-02T09:00:50.232Z,989.435
2018-09-02T09:02:50.277Z,989.426
2018-09-02T09:04:49.926Z,989.407
2018-09-02T09:06:50.378Z,989.403
2018-09-02T09:08:50.658Z,989.347
2018-09-02T09:10:49.906Z,989.353
2018-09-02T09:12:50.129Z,989.362
2018-09-02T09:14:50.220Z,989.351
2018-09-02T09:16:50.741Z,989.351
2018-09-02T09:18:50.249Z,989.339
2018-09-02T09:20:50.230Z,989.311
2018-09-02T09:22:50.312Z,989.263
2018-09-02T09:24:50.381Z,989.226
2018-09-02T09:26:50.627Z,989.232
2018-09-02T09:28:49.782Z,989.232
2018-09-02T09:30:49.860Z,989.225
2018-09-02T09:32:49.918Z,989.230
2018-09-02T09:34:50.227Z,989.222
2018-09-02T09:36:50.528Z,989.226
2018-09-02T09:38:49.803Z,989.234
2018-09-02T09:40:49.813Z,989.212
2018-09-02T09:42:49.846Z,989.200
2018-09-02T09:44:49.877Z,989.163
2018-09-02T09:46:50.041Z,989.145
2018-09-02T09:48:50.047Z,989.129
2018-09-02T09:50:50.090Z,989.121
2018-09-02T09:52:50.137Z,989.116
2018-09-02T09:54:50.221Z,989.113
2018-09-02T09:56:50.405Z,989.113
2018-09-02T09:58:50.408Z,989.188
2018-09-02T10:00:50.430Z,989.259
2018-09-02T10:02:50.365Z,989.259
2018-09-02T10:04:49.853Z,989.306
2018-09-02T10:06:50.017Z,989.349
2018-09-02T10:08:50.005Z,989.368
2018-09-02T10:10:50.067Z,989.397
2018-09-02T10:12:50.069Z,989.400
2018-09-02T10:14:50.125Z,989.387
2018-09-02T10:16:50.329Z,989.355
2018-09-02T10:18:50.461Z,989.342
2018-09-02T10:20:50.417Z,989.278
2018-09-02T10:22:50.515Z,989.246
2018-09-02T10:24:50.310Z,989.219
2018-09-02T10:26:49.749Z,989.222
2018-09-02T10:28:49.904Z,989.228
2018-09-02T10:30:49.894Z,989.201
2018-09-02T10:32:49.854Z,989.190
2018-09-02T10:34:50.123Z,989.174
2018-09-02T10:36:50.277Z,989.168
2018-09-02T10:38:50.227Z,989.117
2018-09-02T10:40:50.218Z,989.104
2018-09-02T10:42:50.222Z,989.073
2018-09-02T10:44:50.231Z,989.043
2018-09-02T10:46:50.388Z,989.036
2018-09-02T10:48:50.371Z,989.028
2018-09-02T10:50:50.353Z,989.019
2018-09-02T10:52:50.315Z,988.987
2018-09-02T10:54:50.386Z,988.983
2018-09-02T10:56:50.560Z,988.965
2018-09-02T10:58:49.626Z,988.949
2018-09-02T11:00:49.629Z,988.934
2018-09-02T11:02:49.706Z,988.926
2018-09-02T11:04:50.208Z,988.878
2018-09-02T11:06:50.471Z,988.857
2018-09-02T11:08:51.022Z,988.857
2018-09-02T11:10:50.062Z,988.826
2018-09-02T11:12:50.005Z,988.812
2018-09-02T11:14:50.040Z,988.802
2018-09-02T11:16:50.176Z,988.756
2018-09-02T11:18:50.290Z,988.759
2018-09-02T11:20:50.316Z,988.746
2018-09-02T11:22:50.339Z,988.752
2018-09-02T11:24:50.412Z,988.751
2018-09-02T11:26:50.633Z,988.730
2018-09-02T11:28:49.837Z,988.714
2018-09-02T11:30:49.826Z,988.695
2018-09-02T11:32:49.917Z,988.693
2018-09-02T11:34:50.128Z,988.686
2018-09-02T11:36:50.258Z,988.675
2018-09-02T11:38:50.264Z,988.671
2018-09-02T11:40:50.340Z,988.666
2018-09-02T11:42:50.383Z,988.663
2018-09-02T11:44:50.389Z,988.702
2018-09-02T11:46:50.806Z,988.727
2018-09-02T11:48:50.182Z,988.727
2018-09-02T11:50:50.194Z,988.736
2018-09-02T11:52:50.194Z,988.734
2018-09-02T11:54:50.205Z,988.733
2018-09-02T11:56:50.380Z,988.738
2018-09-02T11:58:50.417Z,988.758
2018-09-02T12:00:50.520Z,988.758
2018-09-02T12:02:50.477Z,988.799
2018-09-02T12:04:50.094Z,988.801
2018-09-02T12:06:50.534Z,988.767
2018-09-02T12:08:50.579Z,988.753
2018-09-02T12:10:50.586Z,988.732
2018-09-02T12:12:50.645Z,988.728
2018-09-02T12:14:49.718Z,988.718
2018-09-02T12:16:49.967Z,988.701
2018-09-02T12:18:49.903Z,988.710
2018-09-02T12:20:49.858Z,988.708
2018-09-02T12:22:49.867Z,988.708
2018-09-02T12:24:49.855Z,988.708
2018-09-02T12:26:49.954Z,988.666
2018-09-02T12:28:50.204Z,988.666
2018-09-02T12:30:50.238Z,988.660
2018-09-02T12:32:50.427Z,988.650
2018-09-02T12:34:49.738Z,988.631
2018-09-02T12:36:50.122Z,988.609
2018-09-02T12:38:50.106Z,988.602
2018-09-02T12:40:50.191Z,988.615
2018-09-02T12:42:50.263Z,988.611
2018-09-02T12:44:50.268Z,988.604
2018-09-02T12:46:50.389Z,988.597
2018-09-02T12:48:50.733Z,988.597
2018-09-02T12:50:49.777Z,988.610
2018-09-02T12:52:49.804Z,988.610
2018-09-02T12:54:49.803Z,988.592
2018-09-02T12:56:50.447Z,988.579
2018-09-02T12:58:50.422Z,988.564
2018-09-02T13:00:50.372Z,988.570
2018-09-02T13:02:50.441Z,988.570
2018-09-02T13:04:49.896Z,988.526
2018-09-02T13:06:50.084Z,988.526
2018-09-02T13:08:50.104Z,988.500
2018-09-02T13:10:50.077Z,988.470
2018-09-02T13:12:50.434Z,988.454
2018-09-02T13:14:49.866Z,988.417
2018-09-02T13:16:50.055Z,988.402
2018-09-02T13:18:50.257Z,988.381
2018-09-02T13:20:50.444Z,988.388
2018-09-02T13:22:50.602Z,988.395
2018-09-02T13:24:50.536Z,988.375
2018-09-02T13:26:49.801Z,988.369
2018-09-02T13:28:49.941Z,988.341
2018-09-02T13:30:49.932Z,988.335
2018-09-02T13:32:49.905Z,988.273
2018-09-02T13:34:50.204Z,988.238
2018-09-02T13:36:50.426Z,988.192
2018-09-02T13:38:50.399Z,988.205
2018-09-02T13:40:50.407Z,988.228
2018-09-02T13:42:50.510Z,988.253
2018-09-02T13:44:49.726Z,988.267
2018-09-02T13:46:49.885Z,988.246
2018-09-02T13:48:49.954Z,988.227
2018-09-02T13:50:50.000Z,988.218
2018-09-02T13:52:49.973Z,988.195
2018-09-02T13:54:50.471Z,988.195
2018-09-02T13:56:49.777Z,988.193
2018-09-02T13:58:49.895Z,988.172
2018-09-02T14:00:49.919Z,988.121
2018-09-02T14:02:49.981Z,988.089
2018-09-02T14:04:50.248Z,988.066
2018-09-02T14:06:49.674Z,988.031
2018-09-02T14:08:50.612Z,987.966
2018-09-02T14:10:49.647Z,987.966
2018-09-02T14:12:49.786Z,987.977
2018-09-02T14:14:49.790Z,988.042
2018-09-02T14:16:50.020Z,988.060
2018-09-02T14:18:50.012Z,988.086
2018-09-02T14:20:50.009Z,988.068
2018-09-02T14:22:49.961Z,988.050
2018-09-02T14:24:49.992Z,988.062
2018-09-02T14:26:50.163Z,988.070
2018-09-02T14:28:50.211Z,988.048
2018-09-02T14:30:50.196Z,988.053
2018-09-02T14:32:50.217Z,988.055
2018-09-02T14:34:50.604Z,988.058
2018-09-02T14:36:49.726Z,988.065
2018-09-02T14:38:49.739Z,988.047
2018-09-02T14:40:49.748Z,988.026
2018-09-02T14:42:49.842Z,988.007
2018-09-02T14:44:49.832Z,988.010
2018-09-02T14:46:50.066Z,988.013
2018-09-02T14:48:50.062Z,988.010
2018-09-02T14:50:50.390Z,987.987
2018-09-02T14:52:49.918Z,987.984
2018-09-02T14:54:50.015Z,987.959
2018-09-02T14:56:50.457Z,987.951
2018-09-02T14:58:49.817Z,987.959
2018-09-02T15:00:49.817Z,987.938
2018-09-02T15:02:49.752Z,987.941
2018-09-02T15:04:50.387Z,987.952
2018-09-02T15:06:50.589Z,987.928
2018-09-02T15:08:49.617Z,987.912
2018-09-02T15:10:49.778Z,987.897
2018-09-02T15:12:49.880Z,987.890
2018-09-02T15:14:49.892Z,987.910
2018-09-02T15:16:50.075Z,987.923
2018-09-02T15:18:50.181Z,987.923
2018-09-02T15:20:50.235Z,987.916
2018-09-02T15:22:50.317Z,987.916
2018-09-02T15:24:50.330Z,987.898
2018-09-02T15:26:50.591Z,987.906
2018-09-02T15:28:49.762Z,987.895
2018-09-02T15:30:49.764Z,987.919
2018-09-02T15:32:49.873Z,987.908
2018-09-02T15:34:50.245Z,987.910
2018-09-02T15:36:50.440Z,987.900
2018-09-02T15:38:50.443Z,987.900
2018-09-02T15:40:50.520Z,987.906
2018-09-02T15:42:50.560Z,987.922
2018-09-02T15:44:49.693Z,987.919
2018-09-02T15:46:49.907Z,987.934
2018-09-02T15:48:49.927Z,987.934
2018-09-02T15:50:49.939Z,987.898
2018-09-02T15:52:49.955Z,987.898
2018-09-02T15:54:49.982Z,987.832
2018-09-02T15:56:50.083Z,987.806
2018-09-02T15:58:50.095Z,987.794
2018-09-02T16:00:50.331Z,987.793
2018-09-02T16:02:50.589Z,987.795
2018-09-02T16:04:50.080Z,987.786
2018-09-02T16:06:50.174Z,987.775
2018-09-02T16:08:50.113Z,987.780
2018-09-02T16:10:50.083Z,987.759
2018-09-02T16:12:50.109Z,987.745
2018-09-02T16:14:50.082Z,987.722
2018-09-02T16:16:50.189Z,987.717
2018-09-02T16:18:50.189Z,987.694
2018-09-02T16:20:50.282Z,987.697
2018-09-02T16:22:50.368Z,987.697
2018-09-02T16:24:50.481Z,987.695
2018-09-02T16:26:49.697Z,987.660
2018-09-02T16:28:49.783Z,987.649
2018-09-02T16:30:49.899Z,987.629
2018-09-02T16:32:49.836Z,987.628
2018-09-02T16:34:50.057Z,987.656
2018-09-02T16:36:50.195Z,987.667
2018-09-02T16:38:50.178Z,987.698
2018-09-02T16:40:50.167Z,987.698
2018-09-02T16:42:50.157Z,987.666
2018-09-02T16:44:50.119Z,987.654
2018-09-02T16:46:50.280Z,987.627
2018-09-02T16:48:50.398Z,987.581
2018-09-02T16:50:50.472Z,987.581
2018-09-02T16:52:50.643Z,987.569
2018-09-02T16:54:49.922Z,987.577
2018-09-02T16:56:50.093Z,987.584
2018-09-02T16:58:50.205Z,987.581
2018-09-02T17:00:50.184Z,987.563
2018-09-02T17:02:50.150Z,987.551
2018-09-02T17:04:50.406Z,987.549
2018-09-02T17:06:49.679Z,987.557
2018-09-02T17:08:49.813Z,987.552
2018-09-02T17:10:49.800Z,987.552
2018-09-02T17:12:50.170Z,987.592
2018-09-02T17:14:50.484Z,987.589
2018-09-02T17:16:49.718Z,987.588
2018-09-02T17:18:49.688Z,987.582
2018-09-02T17:20:49.748Z,987.569
2018-09-02T17:22:49.961Z,987.555
2018-09-02T17:24:49.905Z,987.531
2018-09-02T17:26:50.043Z,987.542
2018-09-02T17:28:50.005Z,987.540
2018-09-02T17:30:50.043Z,987.520
2018-09-02T17:32:50.056Z,987.497
2018-09-02T17:34:50.394Z,987.494
2018-09-02T17:36:49.676Z,987.510
2018-09-02T17:38:49.646Z,987.510
2018-09-02T17:40:49.738Z,987.531
2018-09-02T17:42:49.892Z,987.534
2018-09-02T17:44:49.911Z,987.531
2018-09-02T17:46:50.120Z,987.520
2018-09-02T17:48:50.107Z,987.523
2018-09-02T17:50:50.120Z,987.531
2018-09-02T17:52:50.117Z,987.554
2018-09-02T17:54:50.108Z,987.572
2018-09-02T17:56:50.286Z,987.566
2018-09-02T17:58:50.285Z,987.590
2018-09-02T18:00:50.446Z,987.602
2018-09-02T18:02:50.504Z,987.627
2018-09-02T18:04:50.084Z,987.644
2018-09-02T18:06:50.219Z,987.644
2018-09-02T18:08:50.273Z,987.724
2018-09-02T18:10:50.216Z,987.741
2018-09-02T18:12:50.289Z,987.764
2018-09-02T18:14:50.350Z,987.780
2018-09-02T18:16:50.509Z,987.792
2018-09-02T18:18:50.667Z,987.801
2018-09-02T18:20:49.709Z,987.813
2018-09-02T18:22:49.882Z,987.848
2018-09-02T18:24:49.849Z,987.857
2018-09-02T18:26:50.023Z,987.851
2018-09-02T18:28:50.242Z,987.843
2018-09-02T18:30:50.190Z,987.834
2018-09-02T18:32:50.234Z,987.841
2018-09-02T18:34:50.595Z,987.840
2018-09-02T18:36:49.857Z,987.837
2018-09-02T18:38:49.831Z,987.839
2018-09-02T18:40:49.784Z,987.840
2018-09-02T18:42:50.008Z,987.845
2018-09-02T18:44:50.056Z,987.841
2018-09-02T18:46:50.256Z,987.845
2018-09-02T18:48:50.264Z,987.855
2018-09-02T18:50:50.255Z,987.852
2018-09-02T18:52:50.303Z,987.855
2018-09-02T18:54:50.307Z,987.857
2018-09-02T18:56:50.449Z,987.852
2018-09-02T18:58:50.556Z,987.834
2018-09-02T19:00:50.471Z,987.855
2018-09-02T19:02:50.997Z,987.889
2018-09-02T19:04:49.637Z,987.908
2018-09-02T19:06:49.941Z,987.911
2018-09-02T19:08:49.890Z,987.921
2018-09-02T19:10:49.902Z,987.920
2018-09-02T19:12:49.884Z,987.945
2018-09-02T19:14:50.020Z,987.956
2018-09-02T19:16:50.256Z,987.969
2018-09-02T19:18:50.235Z,987.971
2018-09-02T19:20:50.245Z,987.971
2018-09-02T19:22:50.191Z,987.955
2018-09-02T19:24:50.218Z,987.937
2018-09-02T19:26:50.385Z,987.917
2018-09-02T19:28:50.360Z,987.902
2018-09-02T19:30:50.316Z,987.868
2018-09-02T19:32:50.282Z,987.860
2018-09-02T19:34:49.738Z,987.801
2018-09-02T19:36:49.961Z,987.801
2018-09-02T19:38:50.011Z,987.791
2018-09-02T19:40:50.037Z,987.751
2018-09-02T19:42:50.049Z,987.746
2018-09-02T19:44:50.063Z,987.719
2018-09-02T19:46:50.427Z,987.719
2018-09-02T19:48:49.655Z,987.705
2018-09-02T19:50:50.591Z,987.680
2018-09-02T19:52:49.631Z,987.666
2018-09-02T19:54:49.806Z,987.612
2018-09-02T19:56:50.058Z,987.601
2018-09-02T19:58:50.152Z,987.577
2018-09-02T20:00:50.154Z,987.557
2018-09-02T20:02:50.185Z,987.510
2018-09-02T20:04:50.433Z,987.496
2018-09-02T20:06:49.647Z,987.488
2018-09-02T20:08:49.672Z,987.475
2018-09-02T20:10:49.804Z,987.478
2018-09-02T20:12:49.787Z,987.498
2018-09-02T20:14:49.874Z,987.494
2018-09-02T20:16:50.062Z,987.480
2018-09-02T20:18:50.090Z,987.459
2018-09-02T20:20:50.043Z,987.451
2018-09-02T20:22:50.036Z,987.424
2018-09-02T20:24:50.090Z,987.424
2018-09-02T20:26:50.202Z,987.429
2018-09-02T20:28:50.122Z,987.409
2018-09-02T20:30:50.055Z,987.401
2018-09-02T20:32:50.059Z,987.362
2018-09-02T20:34:50.382Z,987.350
2018-09-02T20:36:49.648Z,987.331
2018-09-02T20:38:49.649Z,987.322
2018-09-02T20:40:49.724Z,987.311
2018-09-02T20:42:49.737Z,987.316
2018-09-02T20:44:49.718Z,987.316
2018-09-02T20:46:49.954Z,987.327
2018-09-02T20:48:50.056Z,987.357
2018-09-02T20:50:50.117Z,987.347
2018-09-02T20:52:50.155Z,987.345
2018-09-02T20:54:50.183Z,987.334
2018-09-02T20:56:50.372Z,987.343
2018-09-02T20:58:50.354Z,987.342
2018-09-02T21:00:50.485Z,987.384
2018-09-02T21:02:51.009Z,987.392
2018-09-02T21:04:49.808Z,987.416
2018-09-02T21:06:49.961Z,987.453
2018-09-02T21:08:49.976Z,987.450
2018-09-02T21:10:49.924Z,987.433
2018-09-02T21:12:49.865Z,987.435
2018-09-02T21:14:49.800Z,987.423
2018-09-02T21:16:50.234Z,987.427
2018-09-02T21:18:50.377Z,987.428
2018-09-02T21:20:50.348Z,987.423
2018-09-02T21:22:50.440Z,987.418
2018-09-02T21:24:50.403Z,987.416
2018-09-02T21:26:49.777Z,987.398
2018-09-02T21:28:50.237Z,987.383
2018-09-02T21:30:49.636Z,987.355
2018-09-02T21:32:49.639Z,987.335
2018-09-02T21:34:50.154Z,987.264
2018-09-02T21:36:50.258Z,987.264
2018-09-02T21:38:50.294Z,987.227
2018-09-02T21:40:50.317Z,987.218
2018-09-02T21:42:50.320Z,987.184
2018-09-02T21:44:50.341Z,987.170
2018-09-02T21:46:50.582Z,987.119
2018-09-02T21:48:49.671Z,987.108
2018-09-02T21:50:49.857Z,987.099
2018-09-02T21:52:49.823Z,987.093
2018-09-02T21:54:49.880Z,987.059
2018-09-02T21:56:49.981Z,987.012
2018-09-02T21:58:50.005Z,986.999
2018-09-02T22:00:49.923Z,986.974
2018-09-02T22:02:49.921Z,986.956
2018-09-02T22:04:50.201Z,986.920
2018-09-02T22:06:50.506Z,986.862
2018-09-02T22:08:50.492Z,986.851
2018-09-02T22:10:50.537Z,986.870
2018-09-02T22:12:49.619Z,986.856
2018-09-02T22:14:49.612Z,986.853
2018-09-02T22:16:49.949Z,986.864
2018-09-02T22:18:49.879Z,986.878
2018-09-02T22:20:49.901Z,986.878
2018-09-02T22:22:50.035Z,986.798
2018-09-02T22:24:50.062Z,986.739
2018-09-02T22:26:50.331Z,986.680
2018-09-02T22:28:50.408Z,986.659
2018-09-02T22:30:50.360Z,986.662
2018-09-02T22:32:50.393Z,986.624
2018-09-02T22:34:49.812Z,986.618
2018-09-02T22:36:50.016Z,986.584
2018-09-02T22:38:49.984Z,986.582
2018-09-02T22:40:49.997Z,986.574
2018-09-02T22:42:49.977Z,986.536
2018-09-02T22:44:49.973Z,986.527
2018-09-02T22:46:50.156Z,986.506
2018-09-02T22:48:50.082Z,986.494
2018-09-02T22:50:50.116Z,986.445
2018-09-02T22:52:50.114Z,986.405
2018-09-02T22:54:50.075Z,986.385
2018-09-02T22:56:50.241Z,986.344
2018-09-02T22:58:50.235Z,986.333
2018-09-02T23:00:50.247Z,986.267
2018-09-02T23:02:50.150Z,986.220
2018-09-02T23:04:50.576Z,986.177
2018-09-02T23:06:49.805Z,986.123
2018-09-02T23:08:49.784Z,986.085
2018-09-02T23:10:49.800Z,986.031
2018-09-02T23:12:49.807Z,986.018
2018-09-02T23:14:49.782Z,985.964
2018-09-02T23:16:50.196Z,985.926
2018-09-02T23:18:50.214Z,985.914
2018-09-02T23:20:50.196Z,985.924
2018-09-02T23:22:50.263Z,985.925
2018-09-02T23:24:50.206Z,985.958
2018-09-02T23:26:50.382Z,985.972
2018-09-02T23:28:50.401Z,985.996
2018-09-02T23:30:50.378Z,986.007
2018-09-02T23:32:50.442Z,986.018
2018-09-02T23:34:49.723Z,986.107
2018-09-02T23:36:49.849Z,986.147
2018-09-02T23:38:49.865Z,986.204
2018-09-02T23:40:49.839Z,986.196
2018-09-02T23:42:49.940Z,986.151
2018-09-02T23:44:49.911Z,986.142
2018-09-02T23:46:49.989Z,986.135
2018-09-02T23:48:50.009Z,986.106
2018-09-02T23:50:50.036Z,986.074
2018-09-02T23:52:49.991Z,986.018
2018-09-02T23:54:49.968Z,986.004
2018-09-02T23:56:50.088Z,985.954
2018-09-02T23:58:50.140Z,985.931
